sensor_id;sensor_type;location;lat;lon;timestamp;temperature;humidity
74458;SHT31;62896;51.032;3.712;2022-09-27T08:07:58;130;100
74458;SHT31;62896;51.032;3.712;2022-09-27T08:11:18;130;100
74458;SHT31;62896;51.032;3.712;2022-09-27T08:14:38;130;100
74458;SHT31;62896;51.032;3.712;2022-09-27T08:17:58;130;100
74458;SHT31;62896;51.032;3.712;2022-09-27T08:21:18;130;100
74458;SHT31;62896;51.032;3.712;2022-09-27T08:24:38;130;100
74458;SHT31;62896;51.032;3.712;2022-09-27T08:27:58;130;100
74458;SHT31;62896;51.032;3.712;2022-09-27T08:31:18;130;100
74458;SHT31;62896;51.032;3.712;2022-09-27T08:34:38;130;100
74458;SHT31;62896;51.032;3.712;2022-09-27T08:37:58;130;100
74458;SHT31;62896;51.032;3.712;2022-09-27T08:41:21;130;100
74458;SHT31;62896;51.032;3.712;2022-09-27T08:44:39;130;100
74458;SHT31;62896;51.032;3.712;2022-09-27T08:47:58;130;100
74458;SHT31;62896;51.032;3.712;2022-09-27T08:51:19;130;100
74458;SHT31;62896;51.032;3.712;2022-09-27T08:54:38;130;100
74458;SHT31;62896;51.032;3.712;2022-09-27T08:57:58;130;100
74458;SHT31;62896;51.032;3.712;2022-09-27T09:01:18;130;100
74458;SHT31;62896;51.032;3.712;2022-09-27T09:04:39;130;100
74458;SHT31;62896;51.032;3.712;2022-09-27T09:08:02;130;100
74458;SHT31;62896;51.032;3.712;2022-09-27T09:11:20;130;100
74458;SHT31;62896;51.032;3.712;2022-09-27T09:14:44;130;100
74458;SHT31;62896;51.032;3.712;2022-09-27T09:18:05;130;100
74458;SHT31;62896;51.032;3.712;2022-09-27T09:21:20;130;100
74458;SHT31;62896;51.032;3.712;2022-09-27T09:24:41;130;100
74458;SHT31;62896;51.032;3.712;2022-09-27T09:28:02;130;100
74458;SHT31;62896;51.032;3.712;2022-09-27T09:31:20;130;100
74458;SHT31;62896;51.032;3.712;2022-09-27T09:34:38;130;100
74458;SHT31;62896;51.032;3.712;2022-09-27T09:37:59;130;100
74458;SHT31;62896;51.032;3.712;2022-09-27T09:47:58;130;100
74458;SHT31;62896;51.032;3.712;2022-09-27T09:51:19;130;100
74458;SHT31;62896;51.032;3.712;2022-09-27T09:54:39;130;100
74458;SHT31;62896;51.032;3.712;2022-09-27T09:58:00;130;100
74458;SHT31;62896;51.032;3.712;2022-09-27T10:01:19;130;100
74458;SHT31;62896;51.032;3.712;2022-09-27T10:04:38;130;100
74458;SHT31;62896;51.032;3.712;2022-09-27T10:07:59;130;100
74458;SHT31;62896;51.032;3.712;2022-09-27T10:11:19;130;100
74458;SHT31;62896;51.032;3.712;2022-09-27T10:14:38;130;100
74458;SHT31;62896;51.032;3.712;2022-09-27T10:17:58;130;100
74458;SHT31;62896;51.032;3.712;2022-09-27T10:21:19;130;100
74458;SHT31;62896;51.032;3.712;2022-09-27T10:24:51;130;100
74458;SHT31;62896;51.032;3.712;2022-09-27T10:27:58;130;100
74458;SHT31;62896;51.032;3.712;2022-09-27T10:31:19;130;100
74458;SHT31;62896;51.032;3.712;2022-09-27T10:34:39;130;100
74458;SHT31;62896;51.032;3.712;2022-09-27T10:38:03;130;100
74458;SHT31;62896;51.032;3.712;2022-09-27T10:41:22;130;100
74458;SHT31;62896;51.032;3.712;2022-09-27T10:44:38;130;100
74458;SHT31;62896;51.032;3.712;2022-09-27T10:47:58;130;100
74458;SHT31;62896;51.032;3.712;2022-09-27T10:51:21;130;100
74458;SHT31;62896;51.032;3.712;2022-09-27T10:54:38;130;100
74458;SHT31;62896;51.032;3.712;2022-09-27T10:57:58;130;100
74458;SHT31;62896;51.032;3.712;2022-09-27T11:01:18;130;100
74458;SHT31;62896;51.032;3.712;2022-09-27T11:04:38;130;100
74458;SHT31;62896;51.032;3.712;2022-09-27T11:07:59;130;100
74458;SHT31;62896;51.032;3.712;2022-09-27T11:11:18;130;100
74458;SHT31;62896;51.032;3.712;2022-09-27T11:14:38;130;100
74458;SHT31;62896;51.032;3.712;2022-09-27T11:17:59;130;100
74458;SHT31;62896;51.032;3.712;2022-09-27T11:57:59;130;100
74458;SHT31;62896;51.032;3.712;2022-09-27T12:01:21;130;100
74458;SHT31;62896;51.032;3.712;2022-09-27T12:08:04;130;100
74458;SHT31;62896;51.032;3.712;2022-09-27T12:17:59;130;100
74458;SHT31;62896;51.032;3.712;2022-09-27T12:21:18;130;100
74458;SHT31;62896;51.032;3.712;2022-09-27T12:24:38;130;100
74458;SHT31;62896;51.032;3.712;2022-09-27T12:28:00;130;100
74458;SHT31;62896;51.032;3.712;2022-09-27T12:31:19;130;100
74458;SHT31;62896;51.032;3.712;2022-09-27T12:34:39;130;100
74458;SHT31;62896;51.032;3.712;2022-09-27T12:37:59;130;100
74458;SHT31;62896;51.032;3.712;2022-09-27T12:41:18;130;100
74458;SHT31;62896;51.032;3.712;2022-09-27T12:44:39;130;100
74458;SHT31;62896;51.032;3.712;2022-09-27T12:48:00;130;100
74458;SHT31;62896;51.032;3.712;2022-09-27T12:51:19;130;100
74458;SHT31;62896;51.032;3.712;2022-09-27T12:54:44;130;100
74458;SHT31;62896;51.032;3.712;2022-09-27T12:58:06;130;100
74458;SHT31;62896;51.032;3.712;2022-09-27T13:01:22;130;100
74458;SHT31;62896;51.032;3.712;2022-09-27T13:04:42;130;100
74458;SHT31;62896;51.032;3.712;2022-09-27T13:08:01;130;100
74458;SHT31;62896;51.032;3.712;2022-09-27T13:11:19;130;100
74458;SHT31;62896;51.032;3.712;2022-09-27T13:14:39;130;100
74458;SHT31;62896;51.032;3.712;2022-09-27T13:17:58;130;100
74458;SHT31;62896;51.032;3.712;2022-09-27T13:24:39;130;100
74458;SHT31;62896;51.032;3.712;2022-09-27T13:27:58;130;100
74458;SHT31;62896;51.032;3.712;2022-09-27T13:31:25;130;100
74458;SHT31;62896;51.032;3.712;2022-09-27T13:34:38;130;100
74458;SHT31;62896;51.032;3.712;2022-09-27T13:37:58;130;100
74458;SHT31;62896;51.032;3.712;2022-09-27T13:41:18;130;100
74458;SHT31;62896;51.032;3.712;2022-09-27T13:44:39;130;100
74458;SHT31;62896;51.032;3.712;2022-09-27T13:47:58;130;100
74458;SHT31;62896;51.032;3.712;2022-09-27T13:51:20;130;100
74458;SHT31;62896;51.032;3.712;2022-09-27T13:54:39;130;100
74458;SHT31;62896;51.032;3.712;2022-09-27T13:57:58;130;100
74458;SHT31;62896;51.032;3.712;2022-09-27T14:01:21;130;100
74458;SHT31;62896;51.032;3.712;2022-09-27T14:04:40;130;100
74458;SHT31;62896;51.032;3.712;2022-09-27T14:07:58;130;100
74458;SHT31;62896;51.032;3.712;2022-09-27T14:11:19;130;100
74458;SHT31;62896;51.032;3.712;2022-09-27T14:14:39;130;100
74458;SHT31;62896;51.032;3.712;2022-09-27T14:17:58;130;100
74458;SHT31;62896;51.032;3.712;2022-09-27T14:21:24;130;100
74458;SHT31;62896;51.032;3.712;2022-09-27T14:24:46;130;100
74458;SHT31;62896;51.032;3.712;2022-09-27T14:27:58;130;100
74458;SHT31;62896;51.032;3.712;2022-09-27T14:31:19;130;100
74458;SHT31;62896;51.032;3.712;2022-09-27T14:34:38;130;100
74458;SHT31;62896;51.032;3.712;2022-09-27T14:37:58;130;100
74458;SHT31;62896;51.032;3.712;2022-09-27T14:41:18;130;100
74458;SHT31;62896;51.032;3.712;2022-09-27T14:44:39;130;100
74458;SHT31;62896;51.032;3.712;2022-09-27T14:47:58;130;100
74458;SHT31;62896;51.032;3.712;2022-09-27T14:51:19;130;100
74458;SHT31;62896;51.032;3.712;2022-09-27T14:54:38;130;100
74458;SHT31;62896;51.032;3.712;2022-09-27T14:57:58;130;100
74458;SHT31;62896;51.032;3.712;2022-09-27T15:01:18;130;100
74458;SHT31;62896;51.032;3.712;2022-09-27T15:04:39;130;100
74458;SHT31;62896;51.032;3.712;2022-09-27T15:07:58;130;100
74458;SHT31;62896;51.032;3.712;2022-09-27T15:11:18;130;100
74458;SHT31;62896;51.032;3.712;2022-09-27T15:14:38;130;100
74458;SHT31;62896;51.032;3.712;2022-09-27T15:17:58;130;100
74458;SHT31;62896;51.032;3.712;2022-09-27T15:21:26;130;100
74458;SHT31;62896;51.032;3.712;2022-09-27T15:24:39;130;100
74458;SHT31;62896;51.032;3.712;2022-09-27T15:27:59;130;100
74458;SHT31;62896;51.032;3.712;2022-09-27T15:31:27;130;100
74458;SHT31;62896;51.032;3.712;2022-09-27T15:34:38;130;100
74458;SHT31;62896;51.032;3.712;2022-09-27T15:38:30;130;100
74458;SHT31;62896;51.032;3.712;2022-09-27T15:41:18;130;100
74458;SHT31;62896;51.032;3.712;2022-09-27T15:44:43;130;100
74458;SHT31;62896;51.032;3.712;2022-09-27T15:48:04;130;100
74458;SHT31;62896;51.032;3.712;2022-09-27T15:51:36;130;100
74458;SHT31;62896;51.032;3.712;2022-09-27T15:54:38;130;100
74458;SHT31;62896;51.032;3.712;2022-09-27T15:57:59;130;100
74458;SHT31;62896;51.032;3.712;2022-09-27T16:01:18;130;100
74458;SHT31;62896;51.032;3.712;2022-09-27T16:04:38;130;100
74458;SHT31;62896;51.032;3.712;2022-09-27T16:07:58;130;100
74458;SHT31;62896;51.032;3.712;2022-09-27T16:11:18;130;100
74458;SHT31;62896;51.032;3.712;2022-09-27T16:14:38;130;100
74458;SHT31;62896;51.032;3.712;2022-09-27T16:17:58;130;100
74458;SHT31;62896;51.032;3.712;2022-09-27T16:21:18;130;100
74458;SHT31;62896;51.032;3.712;2022-09-27T16:24:38;130;100
74458;SHT31;62896;51.032;3.712;2022-09-27T16:27:58;130;100
74458;SHT31;62896;51.032;3.712;2022-09-27T16:31:18;130;100
74458;SHT31;62896;51.032;3.712;2022-09-27T16:34:38;130;100
74458;SHT31;62896;51.032;3.712;2022-09-27T16:37:58;130;100
74458;SHT31;62896;51.032;3.712;2022-09-27T16:41:18;130;100
74458;SHT31;62896;51.032;3.712;2022-09-27T16:44:38;130;100
74458;SHT31;62896;51.032;3.712;2022-09-27T16:47:58;130;100
74458;SHT31;62896;51.032;3.712;2022-09-27T16:51:19;105.3;100
74458;SHT31;62896;51.032;3.712;2022-09-27T16:54:38;105.3;100
74458;SHT31;62896;51.032;3.712;2022-09-27T16:57:58;105.3;88
74458;SHT31;62896;51.032;3.712;2022-09-27T17:01:18;12.2;88
74458;SHT31;62896;51.032;3.712;2022-09-27T17:04:38;12.2;88
74458;SHT31;62896;51.032;3.712;2022-09-27T17:07:58;12.2;85
74458;SHT31;62896;51.032;3.712;2022-09-27T17:11:18;11.8;85
74458;SHT31;62896;51.032;3.712;2022-09-27T17:14:38;11.8;85
74458;SHT31;62896;51.032;3.712;2022-09-27T17:17:58;11.8;89
74458;SHT31;62896;51.032;3.712;2022-09-27T17:21:18;11.4;89
74458;SHT31;62896;51.032;3.712;2022-09-27T17:24:38;11.4;89
74458;SHT31;62896;51.032;3.712;2022-09-27T17:27:58;11.4;91
74458;SHT31;62896;51.032;3.712;2022-09-27T17:31:18;10.9;91
74458;SHT31;62896;51.032;3.712;2022-09-27T17:34:38;10.9;91
74458;SHT31;62896;51.032;3.712;2022-09-27T17:37:58;10.9;93
74458;SHT31;62896;51.032;3.712;2022-09-27T17:41:19;10.7;93
74458;SHT31;62896;51.032;3.712;2022-09-27T17:44:38;10.7;93
74458;SHT31;62896;51.032;3.712;2022-09-27T17:47:58;10.7;93
74458;SHT31;62896;51.032;3.712;2022-09-27T17:51:18;10.7;93
74458;SHT31;62896;51.032;3.712;2022-09-27T17:54:38;10.7;93
74458;SHT31;62896;51.032;3.712;2022-09-27T17:57:58;10.7;92
74458;SHT31;62896;51.032;3.712;2022-09-27T18:01:18;10.7;92
74458;SHT31;62896;51.032;3.712;2022-09-27T18:04:38;10.7;92
74458;SHT31;62896;51.032;3.712;2022-09-27T18:07:58;10.7;92
74458;SHT31;62896;51.032;3.712;2022-09-27T18:11:18;10.6;92
74458;SHT31;62896;51.032;3.712;2022-09-27T18:14:38;10.6;92
74458;SHT31;62896;51.032;3.712;2022-09-27T18:17:58;10.6;93
74458;SHT31;62896;51.032;3.712;2022-09-27T18:21:18;10.5;93
74458;SHT31;62896;51.032;3.712;2022-09-27T18:24:38;10.5;93
74458;SHT31;62896;51.032;3.712;2022-09-27T18:27:58;10.5;92
74458;SHT31;62896;51.032;3.712;2022-09-27T18:31:19;10.3;92
74458;SHT31;62896;51.032;3.712;2022-09-27T18:34:38;10.3;92
74458;SHT31;62896;51.032;3.712;2022-09-27T18:37:58;10.3;92
74458;SHT31;62896;51.032;3.712;2022-09-27T18:41:18;10.2;92
74458;SHT31;62896;51.032;3.712;2022-09-27T18:44:38;10.2;92
74458;SHT31;62896;51.032;3.712;2022-09-27T18:47:58;10.2;93
74458;SHT31;62896;51.032;3.712;2022-09-27T18:51:19;10.2;93
74458;SHT31;62896;51.032;3.712;2022-09-27T18:54:38;10.2;93
74458;SHT31;62896;51.032;3.712;2022-09-27T18:57:58;10.2;92
74458;SHT31;62896;51.032;3.712;2022-09-27T19:01:18;10.3;92
74458;SHT31;62896;51.032;3.712;2022-09-27T19:04:38;10.3;92
74458;SHT31;62896;51.032;3.712;2022-09-27T19:07:58;10.3;93
74458;SHT31;62896;51.032;3.712;2022-09-27T19:11:18;10.4;93
74458;SHT31;62896;51.032;3.712;2022-09-27T19:14:38;10.4;93
74458;SHT31;62896;51.032;3.712;2022-09-27T19:17:58;10.4;92
74458;SHT31;62896;51.032;3.712;2022-09-27T19:21:18;10.3;92
74458;SHT31;62896;51.032;3.712;2022-09-27T19:24:38;10.3;92
74458;SHT31;62896;51.032;3.712;2022-09-27T19:27:58;10.3;92
74458;SHT31;62896;51.032;3.712;2022-09-27T19:31:18;10.3;92
74458;SHT31;62896;51.032;3.712;2022-09-27T19:34:38;10.3;92
74458;SHT31;62896;51.032;3.712;2022-09-27T19:37:58;10.3;92
74458;SHT31;62896;51.032;3.712;2022-09-27T19:41:18;10.4;92
74458;SHT31;62896;51.032;3.712;2022-09-27T19:44:38;10.4;92
74458;SHT31;62896;51.032;3.712;2022-09-27T19:47:58;10.4;92
74458;SHT31;62896;51.032;3.712;2022-09-27T19:51:18;10.3;92
74458;SHT31;62896;51.032;3.712;2022-09-27T19:54:38;10.3;92
74458;SHT31;62896;51.032;3.712;2022-09-27T19:57:58;10.3;92
74458;SHT31;62896;51.032;3.712;2022-09-27T20:01:19;10.3;92
74458;SHT31;62896;51.032;3.712;2022-09-27T20:04:38;10.3;92
74458;SHT31;62896;51.032;3.712;2022-09-27T20:07:58;10.3;92
74458;SHT31;62896;51.032;3.712;2022-09-27T20:11:18;10.3;92
74458;SHT31;62896;51.032;3.712;2022-09-27T20:14:38;10.3;92
74458;SHT31;62896;51.032;3.712;2022-09-27T20:17:58;10.3;92
74458;SHT31;62896;51.032;3.712;2022-09-27T20:21:19;10.3;92
74458;SHT31;62896;51.032;3.712;2022-09-27T20:24:38;10.3;92
74458;SHT31;62896;51.032;3.712;2022-09-27T20:27:58;10.3;92
74458;SHT31;62896;51.032;3.712;2022-09-27T20:31:19;10.3;92
74458;SHT31;62896;51.032;3.712;2022-09-27T20:34:38;10.3;92
74458;SHT31;62896;51.032;3.712;2022-09-27T20:37:58;10.3;92
74458;SHT31;62896;51.032;3.712;2022-09-27T20:41:18;10.5;92
74458;SHT31;62896;51.032;3.712;2022-09-27T20:44:38;10.5;92
74458;SHT31;62896;51.032;3.712;2022-09-27T20:47:58;10.5;92
74458;SHT31;62896;51.032;3.712;2022-09-27T20:51:18;10.5;92
74458;SHT31;62896;51.032;3.712;2022-09-27T20:54:38;10.5;92
74458;SHT31;62896;51.032;3.712;2022-09-27T20:57:58;10.5;92
74458;SHT31;62896;51.032;3.712;2022-09-27T21:01:18;10.5;92
74458;SHT31;62896;51.032;3.712;2022-09-27T21:04:38;10.5;92
74458;SHT31;62896;51.032;3.712;2022-09-27T21:07:58;10.5;93
74458;SHT31;62896;51.032;3.712;2022-09-27T21:11:18;10.5;93
74458;SHT31;62896;51.032;3.712;2022-09-27T21:14:38;10.5;93
74458;SHT31;62896;51.032;3.712;2022-09-27T21:17:58;10.5;93
74458;SHT31;62896;51.032;3.712;2022-09-27T21:21:18;10.4;93
74458;SHT31;62896;51.032;3.712;2022-09-27T21:24:38;10.4;93
74458;SHT31;62896;51.032;3.712;2022-09-27T21:27:58;10.4;94
74458;SHT31;62896;51.032;3.712;2022-09-27T21:31:19;10.4;94
74458;SHT31;62896;51.032;3.712;2022-09-27T21:34:38;10.4;94
74458;SHT31;62896;51.032;3.712;2022-09-27T21:37:58;10.4;94
74458;SHT31;62896;51.032;3.712;2022-09-27T21:41:18;10.4;94
74458;SHT31;62896;51.032;3.712;2022-09-27T21:44:38;10.4;94
74458;SHT31;62896;51.032;3.712;2022-09-27T21:47:58;10.4;94
74458;SHT31;62896;51.032;3.712;2022-09-27T21:51:19;10.4;94
74458;SHT31;62896;51.032;3.712;2022-09-27T21:54:38;10.4;94
74458;SHT31;62896;51.032;3.712;2022-09-27T21:57:58;10.4;94
74458;SHT31;62896;51.032;3.712;2022-09-27T22:01:19;10.4;94
74458;SHT31;62896;51.032;3.712;2022-09-27T22:04:38;10.4;94
74458;SHT31;62896;51.032;3.712;2022-09-27T22:07:58;10.4;92
74458;SHT31;62896;51.032;3.712;2022-09-27T22:11:19;10.3;92
74458;SHT31;62896;51.032;3.712;2022-09-27T22:14:38;10.3;92
74458;SHT31;62896;51.032;3.712;2022-09-27T22:17:58;10.3;92
74458;SHT31;62896;51.032;3.712;2022-09-27T22:21:24;10.1;92
74458;SHT31;62896;51.032;3.712;2022-09-27T22:24:38;10.1;92
74458;SHT31;62896;51.032;3.712;2022-09-27T22:27:58;10.1;94
74458;SHT31;62896;51.032;3.712;2022-09-27T22:31:18;9.9;94
74458;SHT31;62896;51.032;3.712;2022-09-27T22:34:38;9.9;94
74458;SHT31;62896;51.032;3.712;2022-09-27T22:37:58;9.9;94
74458;SHT31;62896;51.032;3.712;2022-09-27T22:41:18;9.8;94
74458;SHT31;62896;51.032;3.712;2022-09-27T22:44:38;9.8;94
74458;SHT31;62896;51.032;3.712;2022-09-27T22:47:58;9.8;94
74458;SHT31;62896;51.032;3.712;2022-09-27T22:51:18;9.7;94
74458;SHT31;62896;51.032;3.712;2022-09-27T22:54:38;9.7;94
74458;SHT31;62896;51.032;3.712;2022-09-27T22:57:58;9.7;94
74458;SHT31;62896;51.032;3.712;2022-09-27T23:01:19;9.6;94
74458;SHT31;62896;51.032;3.712;2022-09-27T23:04:38;9.6;94
74458;SHT31;62896;51.032;3.712;2022-09-27T23:07:58;9.6;94
74458;SHT31;62896;51.032;3.712;2022-09-27T23:11:19;9.4;94
74458;SHT31;62896;51.032;3.712;2022-09-27T23:14:38;9.4;94
74458;SHT31;62896;51.032;3.712;2022-09-27T23:17:58;9.4;94
74458;SHT31;62896;51.032;3.712;2022-09-27T23:21:18;9.4;94
74458;SHT31;62896;51.032;3.712;2022-09-27T23:24:38;9.4;94
74458;SHT31;62896;51.032;3.712;2022-09-27T23:27:58;9.4;94
74458;SHT31;62896;51.032;3.712;2022-09-27T23:31:18;9.5;94
74458;SHT31;62896;51.032;3.712;2022-09-27T23:34:38;9.5;94
74458;SHT31;62896;51.032;3.712;2022-09-27T23:37:58;9.5;94
74458;SHT31;62896;51.032;3.712;2022-09-27T23:41:18;9.6;94
74458;SHT31;62896;51.032;3.712;2022-09-27T23:44:38;9.6;94
74458;SHT31;62896;51.032;3.712;2022-09-27T23:47:58;9.6;94
74458;SHT31;62896;51.032;3.712;2022-09-27T23:51:18;9.5;94
74458;SHT31;62896;51.032;3.712;2022-09-27T23:54:38;9.5;94
74458;SHT31;62896;51.032;3.712;2022-09-27T23:57:58;9.5;93
